Morganton, NC (28655)

8:00 PM EST on November 22, 2014 (GMT -0500)
Salem Community | Change Station
CLOSE
Current Station
Personal Weather Station
Location: Morganton, NC
Elevation: 1212 ft
Nearby Weather Stations

Elev 1212 ft 35.71 °N, 81.66 °W | Updated 11 seconds ago

Clear
Clear
39.2 °F
Feels Like 39 °F
N
1.0
Wind Variable Wind from East
Gusts 0.0 mph

Today
High -- | Low -- °F
--% Chance of Precip.
Yesterday
High -- | Low -- °F
Precip. -- in
7:09 AM 5:15 PM
New Moon, 0% visible
Pressure 30.38 in
Visibility 10.0 miles
Clouds Clear
Windchill 39 °F
Dew Point 23 °F
Humidity 51%
Rainfall 0.00 in
Snow Depth Not available.
UV 0 out of 12
Pollen .30 out of 12
Air Quality Not available.
Flu Activity Not available.
METAR KMRN 230035Z AUTO 00000KT 10SM CLR 01/M04 A3038 RMK AO2 T00091042

More Conditions Fewer Conditions

Pressure 30.38 in
Visibility 10.0 miles
Clouds Clear
Windchill 39 °F
Dew Point 23 °F
Humidity 51%
Rainfall 0.00 in
Snow Depth Not available.
UV 0 out of 12
Pollen .30 out of 12
Air Quality Not available.
Flu Activity Not available.
METAR KMRN 230035Z AUTO 00000KT 10SM CLR 01/M04 A3038 RMK AO2 T00091042

More Conditions Fewer Conditions

10-Day Weather Forecast

Almanac

Astronomy

Nov. 22, 2014 Rise Set
Actual Time
Civil Twilight
Nautical Twilight
Astronomical Twilight
Moon
Length of Visible Light
Length of Day
Tomorrow will be .
, % of the Moon is Illuminated

Today's Extremes

State Highs State Lows

Community

WunderPhotos

Upload Photos

1,772,949 photos uploaded!

WunderBlogs® & News

Nearby

Air Quality

  Air Quality AQ Index Pollutant
Not available.

Snow Depth

Station Depth Elevation

Earthquake Activity

City Distance Mag. Time & Date
Minimum magnitude displayed is 2.5.

Coastal Water Temperatures

Place Temperature

Nearby Weather Stations